createdAt,value
2023-02-27T00:01:01.672Z,1.40
2023-02-27T00:03:30.483Z,1.45
2023-02-27T00:05:59.161Z,1.40
2023-02-27T00:08:28.890Z,1.58
2023-02-27T00:10:57.259Z,1.35
2023-02-27T00:13:25.729Z,1.30
2023-02-27T00:15:56.397Z,1.13
2023-02-27T00:18:25.165Z,1.27
2023-02-27T00:20:53.560Z,1.30
2023-02-27T00:23:21.958Z,1.50
2023-02-27T00:25:52.302Z,1.60
2023-02-27T00:28:20.777Z,1.20
2023-02-27T00:30:49.378Z,1.30
2023-02-27T00:33:18.121Z,1.48
2023-02-27T00:35:46.658Z,1.58
2023-02-27T00:38:17.162Z,1.50
2023-02-27T00:40:45.645Z,1.30
2023-02-27T00:43:16.443Z,1.52
2023-02-27T00:45:47.207Z,1.85
2023-02-27T00:48:17.625Z,1.30
2023-02-27T00:50:46.204Z,1.20
2023-02-27T00:53:14.771Z,1.27
2023-02-27T00:55:44.774Z,1.73
2023-02-27T00:58:14.220Z,1.10
2023-02-27T01:00:45.891Z,1.30
2023-02-27T01:03:16.759Z,1.30
2023-02-27T01:05:48.161Z,1.63
2023-02-27T01:08:17.012Z,1.35
2023-02-27T01:10:45.501Z,1.45
2023-02-27T01:13:17.394Z,1.40
2023-02-27T01:15:45.988Z,1.50
2023-02-27T01:18:16.004Z,1.10
2023-02-27T01:20:44.588Z,1.30
2023-02-27T01:23:15.181Z,1.38
2023-02-27T01:25:47.507Z,1.65
2023-02-27T01:28:18.179Z,1.67
2023-02-27T01:30:46.633Z,1.40
2023-02-27T01:33:16.274Z,1.40
2023-02-27T01:35:47.717Z,1.52
2023-02-27T01:38:18.543Z,1.77
2023-02-27T01:40:47.030Z,1.30
2023-02-27T01:43:22.376Z,1.27
2023-02-27T01:45:53.950Z,1.50
2023-02-27T01:48:26.988Z,1.35
2023-02-27T01:50:59.528Z,1.35
2023-02-27T01:53:30.074Z,1.40
2023-02-27T01:56:01.997Z,1.35
2023-02-27T01:58:34.100Z,1.38
2023-02-27T02:01:03.673Z,1.40
2023-02-27T02:03:37.089Z,1.30
2023-02-27T02:06:07.675Z,1.67
2023-02-27T02:08:43.089Z,1.52
2023-02-27T02:11:12.386Z,1.67
2023-02-27T02:13:43.045Z,1.73
2023-02-27T02:16:29.613Z,1.45
2023-02-27T02:19:13.472Z,2.23
2023-02-27T02:22:14.612Z,1.27
2023-02-27T02:25:06.771Z,1.70
2023-02-27T02:27:47.806Z,1.92
2023-02-27T02:30:46.034Z,1.80
2023-02-27T02:34:03.166Z,1.47
2023-02-27T02:37:20.166Z,1.50
2023-02-27T02:40:14.451Z,1.40
2023-02-27T02:42:49.151Z,1.45
2023-02-27T02:45:23.271Z,1.70
2023-02-27T02:48:04.301Z,1.77
2023-02-27T02:50:42.575Z,2.05
2023-02-27T02:53:18.002Z,1.70
2023-02-27T02:55:53.278Z,1.80
2023-02-27T02:58:29.013Z,1.98
2023-02-27T03:01:04.369Z,1.60
2023-02-27T03:03:38.411Z,1.50
2023-02-27T03:06:13.417Z,1.70
2023-02-27T03:08:47.482Z,1.70
2023-02-27T03:11:18.352Z,2.08
2023-02-27T03:13:52.369Z,1.53
2023-02-27T03:16:26.181Z,1.60
2023-02-27T03:18:58.059Z,1.80
2023-02-27T03:21:29.547Z,2.03
2023-02-27T03:24:03.459Z,1.60
2023-02-27T03:26:38.946Z,1.80
2023-02-27T03:29:10.480Z,1.83
2023-02-27T03:31:46.864Z,2.20
2023-02-27T03:34:27.535Z,1.75
2023-02-27T03:37:02.993Z,2.30
2023-02-27T03:39:42.089Z,1.77
2023-02-27T03:42:22.888Z,2.03
2023-02-27T03:45:20.100Z,1.55
2023-02-27T03:47:49.067Z,2.33
2023-02-27T03:50:17.775Z,1.85
2023-02-27T03:52:46.789Z,2.00
2023-02-27T03:55:18.641Z,2.25
2023-02-27T03:57:51.872Z,1.95
2023-02-27T04:00:22.297Z,2.08
2023-02-27T04:02:52.445Z,1.85
2023-02-27T04:05:25.073Z,1.97
2023-02-27T04:08:39.043Z,1.85
2023-02-27T04:11:36.505Z,1.98
2023-02-27T04:14:35.530Z,1.67
2023-02-27T04:17:17.584Z,1.83
2023-02-27T04:20:10.642Z,2.20
2023-02-27T04:22:43.261Z,2.00
2023-02-27T04:25:36.471Z,1.80
2023-02-27T04:28:17.594Z,1.90
2023-02-27T04:30:55.894Z,2.00
2023-02-27T04:33:34.880Z,2.03
2023-02-27T04:36:08.378Z,2.00
2023-02-27T04:38:41.293Z,2.05
2023-02-27T04:41:14.145Z,2.17
2023-02-27T04:43:43.758Z,1.95
2023-02-27T04:46:17.335Z,2.33
2023-02-27T04:48:50.392Z,1.90
2023-02-27T04:51:22.839Z,2.22
2023-02-27T04:53:57.878Z,2.22
2023-02-27T04:56:32.151Z,1.90
2023-02-27T04:59:02.895Z,1.67
2023-02-27T05:01:39.040Z,1.85
2023-02-27T05:05:27.502Z,1.90
2023-02-27T05:07:57.916Z,2.08
2023-02-27T05:10:35.498Z,2.20
2023-02-27T05:13:07.592Z,2.10
2023-02-27T05:15:39.495Z,2.42
2023-02-27T05:18:11.994Z,1.75
2023-02-27T05:20:52.960Z,2.30
2023-02-27T05:23:31.718Z,2.03
2023-02-27T05:26:04.132Z,2.03
2023-02-27T05:28:36.129Z,2.47
2023-02-27T05:31:09.717Z,2.65
2023-02-27T05:33:42.731Z,1.90
2023-02-27T05:36:16.758Z,2.15
2023-02-27T05:38:49.544Z,2.17
2023-02-27T05:41:23.576Z,1.92
2023-02-27T05:43:55.521Z,2.05
2023-02-27T05:46:27.693Z,2.05
2023-02-27T05:48:59.223Z,2.03
2023-02-27T05:51:33.229Z,2.40
2023-02-27T05:54:07.672Z,2.28
2023-02-27T05:56:37.779Z,2.28
2023-02-27T05:59:11.703Z,2.47
2023-02-27T06:01:41.592Z,2.42
2023-02-27T06:04:09.939Z,2.17
2023-02-27T06:06:40.904Z,2.10
2023-02-27T06:09:10.745Z,2.22
2023-02-27T06:11:39.225Z,2.10
2023-02-27T06:14:07.631Z,2.42
2023-02-27T06:16:39.210Z,2.10
2023-02-27T06:19:07.935Z,2.25
2023-02-27T06:21:36.430Z,3.92
2023-02-27T06:24:04.898Z,4.00
2023-02-27T06:26:34.371Z,3.45
2023-02-27T06:29:02.678Z,8.23
2023-02-27T06:31:31.127Z,9.93
2023-02-27T06:33:59.635Z,6.13
2023-02-27T06:36:29.471Z,6.00
2023-02-27T06:38:58.949Z,4.68
2023-02-27T06:41:28.602Z,8.37
2023-02-27T06:44:00.298Z,3.88
2023-02-27T06:46:29.056Z,2.80
2023-02-27T06:48:57.825Z,2.78
2023-02-27T06:51:26.299Z,2.55
2023-02-27T06:53:54.676Z,2.83
2023-02-27T06:56:23.032Z,2.60
2023-02-27T06:58:51.688Z,3.05
2023-02-27T07:01:21.148Z,2.83
2023-02-27T07:03:50.356Z,2.63
2023-02-27T07:07:34.391Z,2.20
2023-02-27T07:17:42.165Z,2.90
2023-02-27T07:20:15.148Z,2.83
2023-02-27T07:22:44.214Z,2.47
2023-02-27T07:25:15.600Z,2.55
2023-02-27T07:27:52.188Z,2.50
2023-02-27T07:30:22.211Z,2.55
2023-02-27T07:32:51.973Z,3.05
2023-02-27T07:35:20.868Z,3.27
2023-02-27T07:37:49.688Z,3.08
2023-02-27T07:40:18.357Z,2.65
2023-02-27T07:42:48.368Z,2.50
2023-02-27T07:45:19.409Z,2.45
2023-02-27T07:47:47.872Z,2.80
2023-02-27T07:50:18.038Z,3.28
2023-02-27T07:52:46.906Z,3.08
2023-02-27T07:55:18.540Z,3.13
2023-02-27T07:57:49.533Z,3.05
2023-02-27T08:00:19.018Z,3.87
2023-02-27T08:02:47.535Z,3.05
2023-02-27T08:05:16.249Z,3.30
2023-02-27T08:07:48.106Z,2.45
2023-02-27T08:10:17.198Z,2.70
2023-02-27T08:12:45.878Z,2.60
2023-02-27T08:15:14.489Z,2.92
2023-02-27T08:17:43.084Z,3.08
2023-02-27T08:20:13.789Z,2.45
2023-02-27T08:22:43.827Z,2.90
2023-02-27T08:25:13.605Z,2.87
2023-02-27T08:27:42.315Z,2.45
2023-02-27T08:30:14.586Z,2.65
2023-02-27T08:32:43.267Z,2.80
2023-02-27T08:35:11.844Z,2.38
2023-02-27T08:37:40.265Z,2.40
2023-02-27T08:40:10.880Z,2.63
2023-02-27T08:42:40.377Z,2.40
2023-02-27T08:45:09.608Z,2.50
2023-02-27T08:47:38.169Z,2.17
2023-02-27T08:50:07.122Z,2.63
2023-02-27T08:52:35.495Z,2.70
2023-02-27T08:55:03.933Z,2.58
2023-02-27T08:57:32.531Z,2.45
2023-02-27T09:00:02.015Z,2.25
2023-02-27T09:02:30.930Z,2.50
2023-02-27T09:04:59.595Z,2.30
2023-02-27T09:07:28.094Z,2.70
2023-02-27T09:09:56.622Z,2.25
2023-02-27T09:12:25.002Z,2.50
2023-02-27T09:14:53.495Z,2.30
2023-02-27T09:17:22.956Z,2.03
2023-02-27T09:19:51.848Z,2.55
2023-02-27T09:22:20.880Z,2.63
2023-02-27T09:24:49.258Z,2.83
2023-02-27T09:27:17.981Z,2.47
2023-02-27T09:29:47.077Z,2.40
2023-02-27T09:32:15.904Z,2.50
2023-02-27T09:34:45.556Z,2.50
2023-02-27T09:37:17.513Z,2.40
2023-02-27T09:40:42.464Z,2.30
2023-02-27T09:43:39.440Z,1.75
2023-02-27T09:50:03.244Z,2.63
2023-02-27T09:52:34.139Z,2.15
2023-02-27T09:55:04.093Z,2.30
2023-02-27T09:57:43.904Z,1.95
2023-02-27T10:00:29.055Z,2.08
2023-02-27T10:03:19.130Z,1.95
2023-02-27T10:06:07.235Z,2.40
2023-02-27T10:09:16.512Z,1.80
2023-02-27T10:12:16.326Z,2.00
2023-02-27T10:14:49.007Z,2.03
2023-02-27T10:18:23.770Z,2.17
2023-02-27T10:20:59.955Z,2.08
2023-02-27T10:23:35.595Z,2.63
2023-02-27T10:26:15.013Z,2.15
2023-02-27T10:28:43.641Z,2.70
2023-02-27T10:31:20.160Z,2.28
2023-02-27T10:33:49.632Z,1.95
2023-02-27T10:36:33.086Z,1.90
2023-02-27T10:39:06.973Z,2.28
2023-02-27T10:41:43.535Z,2.13
2023-02-27T10:44:15.481Z,1.85
2023-02-27T10:46:44.236Z,2.22
2023-02-27T10:49:18.862Z,1.77
2023-02-27T10:52:04.897Z,2.00
2023-02-27T10:54:33.470Z,2.30
2023-02-27T10:57:03.660Z,1.65
2023-02-27T10:59:36.473Z,2.05
2023-02-27T11:02:07.519Z,2.00
2023-02-27T11:04:38.884Z,1.92
2023-02-27T11:07:11.000Z,2.28
2023-02-27T11:09:39.582Z,2.08
2023-02-27T11:12:22.064Z,2.30
2023-02-27T11:14:52.899Z,2.27
2023-02-27T11:17:27.582Z,2.45
2023-02-27T11:19:56.036Z,2.10
2023-02-27T11:22:28.220Z,2.50
2023-02-27T11:25:20.266Z,2.30
2023-02-27T11:27:52.427Z,2.23
2023-02-27T11:30:48.335Z,2.60
2023-02-27T11:33:24.708Z,1.95
2023-02-27T11:35:57.272Z,2.05
2023-02-27T11:38:29.982Z,1.92
2023-02-27T11:40:59.969Z,1.83
2023-02-27T11:43:30.537Z,2.05
2023-02-27T11:46:13.911Z,1.67
2023-02-27T11:48:51.513Z,2.47
2023-02-27T11:51:29.045Z,7.40
2023-02-27T11:54:16.829Z,3.07
2023-02-27T11:56:51.380Z,2.33
2023-02-27T11:59:29.666Z,2.28
2023-02-27T12:02:07.654Z,1.80
2023-02-27T12:04:46.336Z,1.85
2023-02-27T12:07:22.674Z,1.90
2023-02-27T12:10:01.061Z,1.55
2023-02-27T12:12:38.633Z,1.73
2023-02-27T12:15:32.563Z,1.63
2023-02-27T12:18:15.212Z,1.60
2023-02-27T12:20:51.808Z,1.60
2023-02-27T12:23:27.307Z,1.58
2023-02-27T12:26:04.579Z,1.42
2023-02-27T12:28:42.054Z,1.55
2023-02-27T12:31:39.302Z,1.85
2023-02-27T12:34:18.017Z,1.67
2023-02-27T12:36:48.177Z,1.67
2023-02-27T12:39:23.461Z,1.92
2023-02-27T12:42:30.364Z,1.75
2023-02-27T12:45:26.330Z,1.48
2023-02-27T12:48:09.626Z,1.40
2023-02-27T12:50:50.266Z,1.65
2023-02-27T12:53:40.940Z,1.42
2023-02-27T12:56:21.289Z,1.63
2023-02-27T12:59:03.019Z,1.60
2023-02-27T13:01:43.342Z,1.70
2023-02-27T13:04:25.184Z,1.67
2023-02-27T13:06:59.791Z,1.80
2023-02-27T13:09:34.787Z,1.75
2023-02-27T13:12:12.641Z,2.30
2023-02-27T13:15:06.030Z,1.70
2023-02-27T13:17:53.120Z,1.40
2023-02-27T13:23:31.296Z,1.38
2023-02-27T13:26:11.334Z,1.83
2023-02-27T13:32:59.180Z,1.65
2023-02-27T13:35:36.306Z,1.80
2023-02-27T13:38:32.202Z,1.73
2023-02-27T13:41:48.409Z,1.42
2023-02-27T13:44:53.276Z,1.80
2023-02-27T13:47:50.943Z,2.15
2023-02-27T13:50:56.098Z,2.95
2023-02-27T13:53:24.962Z,1.80
2023-02-27T13:56:20.900Z,1.98
2023-02-27T13:58:52.022Z,2.27
2023-02-27T14:02:14.371Z,2.15
2023-02-27T14:04:52.411Z,3.20
2023-02-27T14:07:27.390Z,2.08
2023-02-27T14:10:25.371Z,2.30
2023-02-27T14:12:56.933Z,1.70
2023-02-27T14:16:03.434Z,2.00
2023-02-27T14:18:53.588Z,2.08
2023-02-27T14:21:57.076Z,2.50
2023-02-27T14:25:01.058Z,2.28
2023-02-27T14:28:05.029Z,1.87
2023-02-27T14:31:19.925Z,2.20
2023-02-27T14:33:55.928Z,1.95
2023-02-27T14:36:26.970Z,1.80
2023-02-27T14:39:17.777Z,1.92
2023-02-27T14:41:52.221Z,2.23
2023-02-27T14:44:23.045Z,2.47
2023-02-27T14:46:55.691Z,2.17
2023-02-27T14:49:26.953Z,2.15
2023-02-27T14:51:55.758Z,1.92
2023-02-27T14:54:27.008Z,1.53
2023-02-27T15:02:10.919Z,1.67
2023-02-27T15:04:39.833Z,2.05
2023-02-27T15:07:13.665Z,1.70
2023-02-27T15:10:04.605Z,1.47
2023-02-27T15:12:38.415Z,1.80
2023-02-27T15:15:10.143Z,1.95
2023-02-27T15:17:40.541Z,2.03
2023-02-27T15:20:31.096Z,2.05
2023-02-27T15:23:02.125Z,2.23
2023-02-27T15:25:40.430Z,1.80
2023-02-27T15:28:21.109Z,1.60
2023-02-27T15:35:22.095Z,2.30
2023-02-27T15:37:56.182Z,1.90
2023-02-27T15:40:28.679Z,1.75
2023-02-27T15:43:03.191Z,2.08
2023-02-27T15:45:35.490Z,2.15
2023-02-27T15:48:05.277Z,1.65
2023-02-27T15:50:38.354Z,2.10
2023-02-27T15:53:15.630Z,1.90
2023-02-27T15:55:58.315Z,2.72
2023-02-27T15:58:30.629Z,3.03
2023-02-27T16:01:08.748Z,2.45
2023-02-27T16:03:40.182Z,2.00
2023-02-27T16:06:14.513Z,2.15
2023-02-27T16:08:49.617Z,1.90
2023-02-27T16:11:25.101Z,1.90
2023-02-27T16:13:55.723Z,1.95
2023-02-27T16:16:28.224Z,3.07
2023-02-27T16:18:59.083Z,2.50
2023-02-27T16:21:31.095Z,2.00
2023-02-27T16:24:21.260Z,2.10
2023-02-27T16:26:53.752Z,2.03
2023-02-27T16:29:39.014Z,1.83
2023-02-27T16:32:25.760Z,1.52
2023-02-27T16:35:02.611Z,1.77
2023-02-27T16:37:39.186Z,2.25
2023-02-27T16:40:16.029Z,2.22
2023-02-27T16:42:45.075Z,2.37
2023-02-27T16:45:23.267Z,2.72
2023-02-27T16:47:56.781Z,2.60
2023-02-27T16:50:55.732Z,2.08
2023-02-27T16:53:28.207Z,1.85
2023-02-27T16:55:57.126Z,2.40
2023-02-27T16:58:26.030Z,1.95
2023-02-27T17:00:59.220Z,1.58
2023-02-27T17:03:29.964Z,1.80
2023-02-27T17:05:59.223Z,1.90
2023-02-27T17:08:29.238Z,2.07
2023-02-27T17:11:04.300Z,1.73
2023-02-27T17:13:36.575Z,2.03
2023-02-27T17:16:13.455Z,2.10
2023-02-27T17:18:44.453Z,1.85
2023-02-27T17:21:23.218Z,1.63
2023-02-27T17:23:52.373Z,1.77
2023-02-27T17:26:21.613Z,1.98
2023-02-27T17:28:51.834Z,2.08
2023-02-27T17:31:23.227Z,1.42
2023-02-27T17:33:54.163Z,1.60
2023-02-27T17:36:46.878Z,2.10
2023-02-27T17:39:54.300Z,2.58
2023-02-27T17:42:26.004Z,5.85
2023-02-27T17:45:07.631Z,9.60
2023-02-27T17:47:39.302Z,5.30
2023-02-27T17:55:09.765Z,2.70
2023-02-27T18:02:19.103Z,2.53
2023-02-27T18:06:19.767Z,2.60
2023-02-27T18:10:33.217Z,3.30
2023-02-27T18:13:14.286Z,3.00
2023-02-27T18:16:13.052Z,2.65
2023-02-27T18:22:40.610Z,2.80
2023-02-27T18:28:56.986Z,2.97
2023-02-27T18:31:39.728Z,2.55
2023-02-27T18:34:41.334Z,3.65
2023-02-27T18:37:27.046Z,4.00
2023-02-27T18:40:14.913Z,2.60
2023-02-27T18:42:51.400Z,2.67
2023-02-27T18:45:39.924Z,2.17
2023-02-27T18:48:09.433Z,2.47
2023-02-27T18:53:28.514Z,3.08
2023-02-27T18:56:08.280Z,2.83
2023-02-27T18:58:52.120Z,2.80
2023-02-27T19:01:29.898Z,2.80
2023-02-27T19:04:20.749Z,2.60
2023-02-27T19:07:12.939Z,3.05
2023-02-27T19:10:04.340Z,2.63
2023-02-27T19:13:04.922Z,2.20
2023-02-27T19:19:48.244Z,2.13
2023-02-27T19:27:18.321Z,2.30
2023-02-27T19:33:28.662Z,2.10
2023-02-27T19:36:34.894Z,2.30
2023-02-27T19:39:50.269Z,2.95
2023-02-27T19:57:39.815Z,3.00
2023-02-27T20:08:58.428Z,3.05
2023-02-27T20:11:53.016Z,2.90
2023-02-27T20:15:15.281Z,2.83
2023-02-27T20:18:22.038Z,3.05
2023-02-27T20:32:56.762Z,2.70
2023-02-27T20:35:30.099Z,2.67
2023-02-27T20:38:01.612Z,2.45
2023-02-27T20:40:33.908Z,2.30
2023-02-27T20:43:17.755Z,1.97
2023-02-27T20:45:48.154Z,1.95
2023-02-27T20:48:27.233Z,1.95
2023-02-27T20:51:00.744Z,2.00
2023-02-27T20:53:41.936Z,1.50
2023-02-27T20:56:17.698Z,2.10
2023-02-27T20:59:01.666Z,2.03
2023-02-27T21:01:43.544Z,1.80
2023-02-27T21:04:18.053Z,2.40
2023-02-27T21:06:47.066Z,1.85
2023-02-27T21:09:22.732Z,2.43
2023-02-27T21:11:53.327Z,5.22
2023-02-27T21:14:28.007Z,4.80
2023-02-27T21:16:57.133Z,3.45
2023-02-27T21:19:31.282Z,4.03
2023-02-27T21:22:05.684Z,2.80
2023-02-27T21:24:43.198Z,2.28
2023-02-27T21:27:16.725Z,2.83
2023-02-27T21:29:45.590Z,2.10
2023-02-27T21:32:19.076Z,3.85
2023-02-27T21:34:49.187Z,3.23
2023-02-27T21:37:20.972Z,3.33
2023-02-27T21:39:58.769Z,7.00
2023-02-27T21:42:39.108Z,3.17
2023-02-27T21:45:11.686Z,4.10
2023-02-27T21:47:43.463Z,3.70
2023-02-27T21:50:19.260Z,2.20
2023-02-27T21:52:48.083Z,2.83
2023-02-27T21:55:18.712Z,1.98
2023-02-27T21:57:47.598Z,3.13
2023-02-27T22:00:19.388Z,2.23
2023-02-27T22:02:48.277Z,2.20
2023-02-27T22:05:18.457Z,2.20
2023-02-27T22:07:47.480Z,1.90
2023-02-27T22:10:16.257Z,2.40
2023-02-27T22:12:45.150Z,2.63
2023-02-27T22:15:15.475Z,3.53
2023-02-27T22:17:44.386Z,2.35
2023-02-27T22:20:13.862Z,2.45
2023-02-27T22:22:44.110Z,1.88
2023-02-27T22:25:12.787Z,6.33
2023-02-27T22:27:41.375Z,2.58
2023-02-27T22:30:10.811Z,2.22
2023-02-27T22:32:39.869Z,1.80
2023-02-27T22:35:08.938Z,1.58
2023-02-27T22:37:37.330Z,1.97
2023-02-27T22:40:07.970Z,1.83
2023-02-27T22:42:36.432Z,2.15
2023-02-27T22:45:05.068Z,2.00
2023-02-27T22:47:33.577Z,2.50
2023-02-27T22:50:01.968Z,2.80
2023-02-27T22:52:30.367Z,1.95
2023-02-27T22:54:58.857Z,2.17
2023-02-27T22:57:28.536Z,1.95
2023-02-27T22:59:56.925Z,1.70
2023-02-27T23:02:25.359Z,1.93
2023-02-27T23:04:53.727Z,1.70
2023-02-27T23:07:22.174Z,1.80
2023-02-27T23:09:50.988Z,1.55
2023-02-27T23:12:19.722Z,2.15
2023-02-27T23:14:49.576Z,1.67
2023-02-27T23:17:18.356Z,1.83
2023-02-27T23:19:47.044Z,2.00
2023-02-27T23:22:15.551Z,2.00
2023-02-27T23:24:43.889Z,2.42
2023-02-27T23:27:25.330Z,1.90
2023-02-27T23:29:55.796Z,1.80
2023-02-27T23:32:24.667Z,2.10
2023-02-27T23:34:53.047Z,3.45
2023-02-27T23:37:21.401Z,2.20
2023-02-27T23:39:49.971Z,1.83
2023-02-27T23:42:35.875Z,1.70
2023-02-27T23:45:05.864Z,2.20
2023-02-27T23:47:43.216Z,2.28
2023-02-27T23:50:12.402Z,1.88
2023-02-27T23:52:40.811Z,2.20
2023-02-27T23:55:09.704Z,1.98
2023-02-27T23:57:38.075Z,2.08
